Time;durP1;ratioP1;P1;durP2;ratioP2;P2;SDS_P1;SDS_P2;PMS_P1;PMS_P2;Temp;Humidity;BMP_temperature;BMP_pressure;BME280_temperature;BME280_humidity;BME280_pressure;Samples;Min_cycle;Max_cycle;Signal;HPM_P1;HPM_P2
2023/04/17 00:00:50;;;;;;;;;;;19.70;99.90;;;;;;5075897;28;20064;-63
2023/04/17 00:03:17;;;;;;;;;;;19.90;99.90;;;;;;5077977;28;20304;-68
2023/04/17 00:05:45;;;;;;;;;;;20.10;99.90;;;;;;5077637;28;19954;-67
2023/04/17 00:08:11;;;;;;;;;;;20.10;99.90;;;;;;5077628;28;19914;-68
2023/04/17 00:10:38;;;;;;;;;;;20.30;99.90;;;;;;5077102;28;19908;-61
2023/04/17 00:13:05;;;;;;;;;;;20.50;99.90;;;;;;5076671;28;19908;-68
2023/04/17 00:15:31;;;;;;;;;;;20.50;99.90;;;;;;5077512;28;20387;-68
2023/04/17 00:17:58;;;;;;;;;;;20.50;99.80;;;;;;5076725;28;19915;-69
2023/04/17 00:20:25;;;;;;;;;;;20.60;99.90;;;;;;5077406;28;19912;-67
2023/04/17 00:22:51;;;;;;;;;;;20.60;99.60;;;;;;5075815;28;19973;-65
2023/04/17 00:25:18;;;;;;;;;;;20.70;99.60;;;;;;5077701;28;20002;-66
2023/04/17 00:27:45;;;;;;;;;;;20.70;99.60;;;;;;5077385;28;19909;-63
2023/04/17 00:30:11;;;;;;;;;;;20.80;99.50;;;;;;5076901;28;19908;-68
2023/04/17 00:32:38;;;;;;;;;;;20.90;99.60;;;;;;5076589;28;20088;-65
2023/04/17 00:35:05;;;;;;;;;;;21.00;99.40;;;;;;5076932;28;19908;-67
2023/04/17 00:37:31;;;;;;;;;;;21.10;99.00;;;;;;5077260;28;19914;-68
2023/04/17 00:39:58;;;;;;;;;;;21.20;98.90;;;;;;5075821;28;20164;-67
2023/04/17 00:42:25;;;;;;;;;;;21.20;98.70;;;;;;5077088;28;20319;-68
2023/04/17 00:44:51;;;;;;;;;;;21.30;98.80;;;;;;5076889;28;20315;-66
2023/04/17 00:47:21;;;;;;;;;;;21.30;98.80;;;;;;5077291;28;19908;-64
2023/04/17 00:49:48;;;;;;;;;;;21.40;98.50;;;;;;5076909;28;20119;-67
2023/04/17 00:52:21;;;;;;;;;;;21.50;98.40;;;;;;5076426;28;19908;-62
2023/04/17 00:54:48;;;;;;;;;;;21.50;98.50;;;;;;5076774;28;19909;-63
2023/04/17 00:57:15;;;;;;;;;;;21.60;98.20;;;;;;5075880;28;20186;-60
2023/04/17 00:59:43;;;;;;;;;;;21.70;98.20;;;;;;5076284;28;19915;-66
2023/04/17 01:02:11;;;;;;;;;;;21.70;98.20;;;;;;5057866;28;19927;-62
2023/04/17 01:04:38;;;;;;;;;;;21.80;98.20;;;;;;5076284;28;19909;-64
2023/04/17 01:07:05;;;;;;;;;;;21.90;98.10;;;;;;5075771;28;19926;-65
2023/04/17 01:09:31;;;;;;;;;;;22.10;97.60;;;;;;5076332;28;19943;-64
2023/04/17 01:12:20;;;;;;;;;;;22.20;97.40;;;;;;5058109;28;20163;-66
2023/04/17 01:14:49;;;;;;;;;;;22.20;97.30;;;;;;5075647;28;19908;-64
2023/04/17 01:17:17;;;;;;;;;;;22.30;97.60;;;;;;5057585;28;20304;-66
2023/04/17 01:19:44;;;;;;;;;;;22.50;97.20;;;;;;5075892;28;20534;-65
2023/04/17 01:22:11;;;;;;;;;;;22.70;97.10;;;;;;5075607;28;20300;-66
2023/04/17 01:24:38;;;;;;;;;;;22.80;96.20;;;;;;5076499;28;19916;-67
2023/04/17 01:27:05;;;;;;;;;;;22.90;95.80;;;;;;5075162;28;20034;-66
2023/04/17 01:29:33;;;;;;;;;;;23.00;95.90;;;;;;5076118;28;19927;-68
2023/04/17 01:31:59;;;;;;;;;;;23.10;95.80;;;;;;5076657;28;19912;-65
2023/04/17 01:34:26;;;;;;;;;;;23.10;95.50;;;;;;5077268;28;20276;-67
2023/04/17 01:36:53;;;;;;;;;;;23.10;95.40;;;;;;5076104;28;20249;-67
2023/04/17 01:39:19;;;;;;;;;;;23.00;95.30;;;;;;5075549;28;19908;-66
2023/04/17 01:41:46;;;;;;;;;;;23.20;95.20;;;;;;5075988;28;19916;-67
2023/04/17 01:44:13;;;;;;;;;;;23.30;94.90;;;;;;5075515;28;19914;-67
2023/04/17 01:46:39;;;;;;;;;;;23.50;94.30;;;;;;5076386;28;20050;-67
2023/04/17 01:49:06;;;;;;;;;;;23.50;93.80;;;;;;5075326;28;20144;-68
2023/04/17 01:51:33;;;;;;;;;;;23.50;94.00;;;;;;5077284;28;19908;-67
2023/04/17 01:53:59;;;;;;;;;;;23.30;94.00;;;;;;5076513;28;19908;-68
2023/04/17 01:56:26;;;;;;;;;;;23.40;94.20;;;;;;5077424;28;20181;-68
2023/04/17 01:58:53;;;;;;;;;;;23.60;93.80;;;;;;5079237;28;19912;-67
2023/04/17 02:01:19;;;;;;;;;;;23.90;93.20;;;;;;5079485;28;19908;-64
2023/04/17 02:03:46;;;;;;;;;;;24.10;93.40;;;;;;5080032;28;20402;-64
2023/04/17 02:06:13;;;;;;;;;;;24.30;92.80;;;;;;5078616;28;20353;-68
2023/04/17 02:08:40;;;;;;;;;;;24.40;92.50;;;;;;5079633;28;19962;-65
2023/04/17 02:11:06;;;;;;;;;;;24.40;92.70;;;;;;5079817;28;19908;-62
2023/04/17 02:13:33;;;;;;;;;;;24.40;92.30;;;;;;5080081;28;20003;-65
2023/04/17 02:16:01;;;;;;;;;;;24.40;92.20;;;;;;5079943;28;19915;-69
2023/04/17 02:18:27;;;;;;;;;;;24.50;92.00;;;;;;5078719;28;19908;-68
2023/04/17 02:20:54;;;;;;;;;;;24.60;91.90;;;;;;5079029;28;20152;-68
2023/04/17 02:23:21;;;;;;;;;;;24.70;91.70;;;;;;5078643;28;20003;-68
2023/04/17 02:25:47;;;;;;;;;;;24.70;91.40;;;;;;5079283;28;20280;-67
2023/04/17 02:28:14;;;;;;;;;;;24.80;91.30;;;;;;5077806;28;19908;-61
2023/04/17 02:30:41;;;;;;;;;;;25.10;91.30;;;;;;5079656;28;20269;-69
2023/04/17 02:33:07;;;;;;;;;;;25.30;91.30;;;;;;5079827;28;20016;-67
2023/04/17 02:35:34;;;;;;;;;;;25.70;90.50;;;;;;5079432;28;20200;-67
2023/04/17 02:38:01;;;;;;;;;;;26.00;89.60;;;;;;5078401;28;20233;-66
2023/04/17 02:40:27;;;;;;;;;;;26.60;88.70;;;;;;5078532;28;20166;-67
2023/04/17 02:42:54;;;;;;;;;;;26.90;85.70;;;;;;5079688;28;19917;-67
2023/04/17 02:45:21;;;;;;;;;;;26.70;86.10;;;;;;5077890;28;20075;-66
2023/04/17 02:47:47;;;;;;;;;;;26.50;87.00;;;;;;5079028;28;20057;-67
2023/04/17 02:50:14;;;;;;;;;;;26.30;87.50;;;;;;5078650;28;19908;-65
2023/04/17 02:52:41;;;;;;;;;;;25.80;87.70;;;;;;5079800;28;19953;-64
2023/04/17 02:55:08;;;;;;;;;;;25.20;88.40;;;;;;5079187;28;20070;-66
2023/04/17 02:57:35;;;;;;;;;;;25.30;89.00;;;;;;5078629;28;19973;-62
2023/04/17 03:00:06;;;;;;;;;;;26.40;87.00;;;;;;5078207;28;19909;-66
2023/04/17 03:02:33;;;;;;;;;;;28.30;84.80;;;;;;5077717;28;20318;-64
2023/04/17 03:05:01;;;;;;;;;;;29.40;79.00;;;;;;5078422;28;19962;-65
2023/04/17 03:07:27;;;;;;;;;;;28.90;78.80;;;;;;5076935;28;19909;-67
2023/04/17 03:09:56;;;;;;;;;;;28.30;80.50;;;;;;5078973;28;20346;-66
2023/04/17 03:12:23;;;;;;;;;;;27.90;82.60;;;;;;5077313;28;19916;-64
2023/04/17 03:14:50;;;;;;;;;;;28.80;81.50;;;;;;5078803;28;20360;-66
2023/04/17 03:17:17;;;;;;;;;;;29.90;78.90;;;;;;5078746;28;19908;-67
2023/04/17 03:19:43;;;;;;;;;;;31.20;77.50;;;;;;5079215;28;19915;-63
2023/04/17 03:22:10;;;;;;;;;;;31.80;74.90;;;;;;5077651;28;20383;-64
2023/04/17 03:24:36;;;;;;;;;;;30.90;74.40;;;;;;5077490;28;19924;-62
2023/04/17 03:27:03;;;;;;;;;;;30.20;77.10;;;;;;5078232;28;19908;-62
2023/04/17 03:29:30;;;;;;;;;;;29.00;77.90;;;;;;5077494;28;19908;-64
2023/04/17 03:31:56;;;;;;;;;;;27.70;81.40;;;;;;5077652;28;20352;-66
2023/04/17 03:34:24;;;;;;;;;;;26.80;82.30;;;;;;5076546;28;20127;-66
2023/04/17 03:36:51;;;;;;;;;;;26.10;84.20;;;;;;5078253;28;19908;-67
2023/04/17 03:39:18;;;;;;;;;;;25.30;86.90;;;;;;5077814;28;19944;-65
2023/04/17 03:41:44;;;;;;;;;;;24.90;87.90;;;;;;5077973;28;20177;-67
2023/04/17 03:44:11;;;;;;;;;;;24.70;89.30;;;;;;5077166;28;20517;-64
2023/04/17 03:46:38;;;;;;;;;;;25.20;87.90;;;;;;5077187;28;20144;-67
2023/04/17 03:49:05;;;;;;;;;;;25.70;87.90;;;;;;5077687;28;20257;-63
2023/04/17 03:51:31;;;;;;;;;;;27.20;83.90;;;;;;5076401;28;19915;-67
2023/04/17 03:53:58;;;;;;;;;;;29.80;79.80;;;;;;5077609;28;20269;-67
2023/04/17 03:56:25;;;;;;;;;;;31.70;74.80;;;;;;5077390;28;19908;-64
2023/04/17 03:58:51;;;;;;;;;;;32.80;73.10;;;;;;5078493;28;19934;-64
2023/04/17 04:01:18;;;;;;;;;;;32.80;71.90;;;;;;5077686;28;19908;-62
2023/04/17 04:03:44;;;;;;;;;;;32.90;71.30;;;;;;5076561;28;20068;-65
2023/04/17 04:06:11;;;;;;;;;;;33.60;70.40;;;;;;5076987;28;19974;-68
2023/04/17 04:08:39;;;;;;;;;;;34.10;69.40;;;;;;5076972;28;19935;-68
2023/04/17 04:11:05;;;;;;;;;;;34.20;68.80;;;;;;5077588;28;20375;-67
2023/04/17 04:13:32;;;;;;;;;;;33.50;68.30;;;;;;5076259;28;20048;-67
2023/04/17 04:15:59;;;;;;;;;;;31.70;70.70;;;;;;5077948;28;19908;-64
2023/04/17 04:18:26;;;;;;;;;;;30.20;73.70;;;;;;5077270;28;20407;-67
2023/04/17 04:20:52;;;;;;;;;;;29.80;75.00;;;;;;5078137;28;20002;-67
2023/04/17 04:23:19;;;;;;;;;;;30.80;74.80;;;;;;5076839;28;19920;-64
2023/04/17 04:25:48;;;;;;;;;;;31.80;71.40;;;;;;5076395;28;19912;-68
2023/04/17 04:28:16;;;;;;;;;;;31.20;72.30;;;;;;5076604;28;19909;-67
2023/04/17 04:30:49;;;;;;;;;;;30.90;72.50;;;;;;5076218;28;20411;-66
2023/04/17 04:33:19;;;;;;;;;;;30.80;72.20;;;;;;5076712;28;19915;-63
2023/04/17 04:35:50;;;;;;;;;;;30.90;72.90;;;;;;5076371;28;20112;-66
2023/04/17 04:38:17;;;;;;;;;;;31.50;71.60;;;;;;5076322;28;19915;-66
2023/04/17 04:40:51;;;;;;;;;;;31.10;72.70;;;;;;5076235;28;19915;-65
2023/04/17 04:43:17;;;;;;;;;;;30.30;73.30;;;;;;5076297;28;19999;-65
2023/04/17 04:45:44;;;;;;;;;;;29.40;75.10;;;;;;5076048;28;19915;-67
2023/04/17 04:48:14;;;;;;;;;;;28.70;76.10;;;;;;5076846;28;20368;-68
2023/04/17 04:50:40;;;;;;;;;;;27.70;78.40;;;;;;5057628;28;19908;-69
2023/04/17 04:53:07;;;;;;;;;;;27.00;79.70;;;;;;5076918;28;19908;-68
2023/04/17 04:55:34;;;;;;;;;;;26.70;82.20;;;;;;5076478;28;19974;-64
2023/04/17 04:58:00;;;;;;;;;;;27.80;79.70;;;;;;5077500;28;19950;-68
2023/04/17 05:00:27;;;;;;;;;;;28.30;77.50;;;;;;5077240;28;20280;-68
2023/04/17 05:02:53;;;;;;;;;;;28.20;76.60;;;;;;5074980;28;20120;-68
2023/04/17 05:05:20;;;;;;;;;;;27.30;77.80;;;;;;5077134;28;19908;-66
2023/04/17 05:07:47;;;;;;;;;;;26.40;80.30;;;;;;5076239;28;19908;-68
2023/04/17 05:10:13;;;;;;;;;;;25.70;82.10;;;;;;5076517;28;20175;-68
2023/04/17 05:12:41;;;;;;;;;;;25.10;82.90;;;;;;5074808;28;19908;-68
2023/04/17 05:15:08;;;;;;;;;;;24.80;83.90;;;;;;5077659;28;19904;-64
2023/04/17 05:17:36;;;;;;;;;;;24.50;86.70;;;;;;5077436;28;19915;-67
2023/04/17 05:20:05;;;;;;;;;;;24.30;85.70;;;;;;5077000;28;20010;-65
2023/04/17 05:22:32;;;;;;;;;;;24.10;87.20;;;;;;5077310;28;19920;-66
2023/04/17 05:24:59;;;;;;;;;;;23.90;87.00;;;;;;5075689;28;20039;-67
2023/04/17 05:27:28;;;;;;;;;;;23.60;88.30;;;;;;5076319;28;19983;-68
2023/04/17 05:29:55;;;;;;;;;;;23.30;89.50;;;;;;5074994;28;20261;-60
2023/04/17 05:32:21;;;;;;;;;;;23.30;90.10;;;;;;5080204;28;19915;-62
2023/04/17 05:34:48;;;;;;;;;;;23.20;88.90;;;;;;5079260;28;20433;-69
2023/04/17 05:37:15;;;;;;;;;;;23.00;89.70;;;;;;5080373;28;19963;-64
2023/04/17 05:39:42;;;;;;;;;;;23.00;90.30;;;;;;5079899;28;19908;-67
2023/04/17 05:42:08;;;;;;;;;;;23.20;90.70;;;;;;5081488;28;20006;-64
2023/04/17 05:44:35;;;;;;;;;;;23.20;90.10;;;;;;5081261;28;20327;-66
2023/04/17 05:47:02;;;;;;;;;;;23.20;90.00;;;;;;5079263;28;20262;-68
2023/04/17 05:49:29;;;;;;;;;;;23.20;90.40;;;;;;5062169;28;19908;-68
2023/04/17 05:51:55;;;;;;;;;;;23.40;89.40;;;;;;5079038;28;19908;-68
2023/04/17 05:54:22;;;;;;;;;;;23.40;89.00;;;;;;5080174;28;19999;-67
2023/04/17 05:56:49;;;;;;;;;;;23.20;89.40;;;;;;5078574;28;20413;-68
2023/04/17 05:59:16;;;;;;;;;;;23.00;90.40;;;;;;5080592;28;19908;-67
2023/04/17 06:01:42;;;;;;;;;;;23.10;90.20;;;;;;5080452;28;19960;-63
2023/04/17 06:04:09;;;;;;;;;;;23.00;90.10;;;;;;5080017;28;19908;-68
2023/04/17 06:06:36;;;;;;;;;;;22.90;90.00;;;;;;5079820;28;20338;-67
2023/04/17 06:09:04;;;;;;;;;;;22.80;90.50;;;;;;5078325;28;20107;-65
2023/04/17 06:11:31;;;;;;;;;;;22.70;90.20;;;;;;5081000;28;20134;-62
2023/04/17 06:13:58;;;;;;;;;;;22.80;90.40;;;;;;5060436;28;19935;-62
2023/04/17 06:16:25;;;;;;;;;;;22.90;90.50;;;;;;5079714;28;19908;-67
2023/04/17 06:18:51;;;;;;;;;;;22.70;90.40;;;;;;5077779;28;20361;-63
2023/04/17 06:21:18;;;;;;;;;;;22.60;90.40;;;;;;5079840;28;19912;-69
2023/04/17 06:23:45;;;;;;;;;;;22.50;90.90;;;;;;5079502;28;19927;-64
2023/04/17 06:26:11;;;;;;;;;;;22.40;90.60;;;;;;5079973;28;19908;-69
2023/04/17 06:28:38;;;;;;;;;;;22.20;90.50;;;;;;5079378;28;19991;-67
2023/04/17 06:31:05;;;;;;;;;;;22.10;91.10;;;;;;5077957;28;19962;-66
2023/04/17 06:33:31;;;;;;;;;;;22.00;91.30;;;;;;5079395;28;19915;-64
2023/04/17 06:35:58;;;;;;;;;;;21.90;91.60;;;;;;5078143;28;20283;-65
2023/04/17 06:38:25;;;;;;;;;;;21.90;91.90;;;;;;5079489;28;19904;-68
2023/04/17 06:40:51;;;;;;;;;;;21.90;91.40;;;;;;5060274;28;20011;-67
2023/04/17 06:43:18;;;;;;;;;;;22.10;91.50;;;;;;5078869;28;19927;-68
2023/04/17 06:45:44;;;;;;;;;;;22.80;91.30;;;;;;5079589;28;20432;-69
2023/04/17 06:48:11;;;;;;;;;;;23.50;89.80;;;;;;5077878;28;19908;-66
2023/04/17 06:50:38;;;;;;;;;;;24.00;87.10;;;;;;5079025;28;20028;-64
2023/04/17 06:53:04;;;;;;;;;;;24.10;86.20;;;;;;5077916;28;19915;-67
2023/04/17 06:55:31;;;;;;;;;;;24.00;86.80;;;;;;5079013;28;19915;-68
2023/04/17 06:57:58;;;;;;;;;;;23.80;87.10;;;;;;5077679;28;19954;-65
2023/04/17 07:00:24;;;;;;;;;;;23.40;87.80;;;;;;5079192;28;20433;-65
2023/04/17 07:02:52;;;;;;;;;;;23.00;89.10;;;;;;5078975;28;19989;-65
2023/04/17 07:05:19;;;;;;;;;;;22.70;90.20;;;;;;5061467;28;19959;-67
2023/04/17 07:07:46;;;;;;;;;;;22.20;90.40;;;;;;5078594;28;19913;-68
2023/04/17 07:10:14;;;;;;;;;;;21.80;91.10;;;;;;5077149;28;20541;-67
2023/04/17 07:12:41;;;;;;;;;;;21.60;91.30;;;;;;5078536;28;20277;-67
2023/04/17 07:15:08;;;;;;;;;;;21.20;91.90;;;;;;5077630;28;19917;-68
2023/04/17 07:17:34;;;;;;;;;;;21.10;92.50;;;;;;5078569;28;19915;-68
2023/04/17 07:20:01;;;;;;;;;;;20.90;92.70;;;;;;5076857;28;19980;-68
2023/04/17 07:22:27;;;;;;;;;;;20.80;92.90;;;;;;5079003;28;20367;-68
2023/04/17 07:24:54;;;;;;;;;;;20.70;93.20;;;;;;5079060;28;20003;-63
2023/04/17 07:27:21;;;;;;;;;;;20.50;93.40;;;;;;5078879;28;20327;-67
2023/04/17 07:29:53;;;;;;;;;;;20.40;93.30;;;;;;5077512;28;20126;-67
2023/04/17 07:32:25;;;;;;;;;;;20.20;93.50;;;;;;5077207;28;20513;-68
2023/04/17 07:34:52;;;;;;;;;;;20.00;94.10;;;;;;5078687;28;20289;-65
2023/04/17 07:37:18;;;;;;;;;;;19.90;94.20;;;;;;5076649;28;19915;-69
2023/04/17 07:39:48;;;;;;;;;;;19.80;94.60;;;;;;5078483;28;20046;-69
2023/04/17 07:42:15;;;;;;;;;;;19.70;95.00;;;;;;5076760;28;20312;-64
2023/04/17 07:44:41;;;;;;;;;;;19.60;95.30;;;;;;5078343;28;19908;-66
2023/04/17 07:47:08;;;;;;;;;;;19.50;95.50;;;;;;5076390;28;19943;-67
2023/04/17 07:49:35;;;;;;;;;;;19.40;95.60;;;;;;5077361;28;20020;-64
2023/04/17 07:52:01;;;;;;;;;;;19.40;96.10;;;;;;5077858;28;19908;-68
2023/04/17 07:54:30;;;;;;;;;;;19.40;96.20;;;;;;5078007;28;19908;-66
2023/04/17 07:56:56;;;;;;;;;;;19.30;96.20;;;;;;5078845;28;19909;-70
2023/04/17 07:59:23;;;;;;;;;;;19.30;96.40;;;;;;5076872;28;19911;-69
2023/04/17 08:01:51;;;;;;;;;;;19.20;96.70;;;;;;5077500;28;19912;-68
2023/04/17 08:04:17;;;;;;;;;;;19.10;97.00;;;;;;5076579;28;20057;-68
2023/04/17 08:06:44;;;;;;;;;;;19.10;97.10;;;;;;5077876;28;19999;-64
2023/04/17 08:09:11;;;;;;;;;;;19.00;96.90;;;;;;5076215;28;20361;-67
2023/04/17 08:11:38;;;;;;;;;;;19.00;96.90;;;;;;5077721;28;19908;-68
2023/04/17 08:14:05;;;;;;;;;;;19.00;97.10;;;;;;5077893;28;20379;-64
2023/04/17 08:16:32;;;;;;;;;;;19.00;97.20;;;;;;5077603;28;19908;-68
2023/04/17 08:18:58;;;;;;;;;;;19.00;97.40;;;;;;5077531;28;20006;-68
2023/04/17 08:21:25;;;;;;;;;;;19.00;97.50;;;;;;5075603;28;19959;-70
2023/04/17 08:23:52;;;;;;;;;;;19.00;97.70;;;;;;5077129;28;20111;-69
2023/04/17 08:26:19;;;;;;;;;;;19.00;97.60;;;;;;5076180;28;20288;-68
2023/04/17 08:28:46;;;;;;;;;;;18.90;98.00;;;;;;5077173;28;19908;-68
2023/04/17 08:31:13;;;;;;;;;;;18.90;98.10;;;;;;5075929;28;19999;-67
2023/04/17 08:33:39;;;;;;;;;;;18.80;98.20;;;;;;5077884;28;19908;-69
2023/04/17 08:36:08;;;;;;;;;;;18.70;97.80;;;;;;5077558;28;19908;-64
2023/04/17 08:38:35;;;;;;;;;;;18.80;98.00;;;;;;5077649;28;19908;-64
2023/04/17 08:41:07;;;;;;;;;;;18.70;98.10;;;;;;5076919;28;19999;-68
2023/04/17 08:43:36;;;;;;;;;;;18.70;98.20;;;;;;5077739;28;19946;-69
2023/04/17 08:46:03;;;;;;;;;;;18.70;98.60;;;;;;5059564;28;19919;-67
2023/04/17 08:48:30;;;;;;;;;;;18.70;98.70;;;;;;5075740;28;20634;-67
2023/04/17 08:50:57;;;;;;;;;;;18.60;98.90;;;;;;5076895;28;19956;-68
2023/04/17 08:53:23;;;;;;;;;;;18.60;99.00;;;;;;5075874;28;19909;-68
2023/04/17 08:55:50;;;;;;;;;;;18.60;99.10;;;;;;5076819;28;19908;-68
2023/04/17 08:58:17;;;;;;;;;;;18.60;99.30;;;;;;5075127;28;20526;-64
2023/04/17 09:00:44;;;;;;;;;;;18.60;99.30;;;;;;5077129;28;19912;-63
2023/04/17 09:03:11;;;;;;;;;;;18.50;99.50;;;;;;5077388;28;19924;-67
2023/04/17 09:05:40;;;;;;;;;;;18.50;99.60;;;;;;5076535;28;20078;-69
2023/04/17 09:08:07;;;;;;;;;;;18.50;99.50;;;;;;5077473;28;20524;-66
2023/04/17 09:10:36;;;;;;;;;;;18.40;99.60;;;;;;5075358;28;19908;-64
2023/04/17 09:13:03;;;;;;;;;;;18.50;99.80;;;;;;5076136;28;19912;-65
2023/04/17 09:15:31;;;;;;;;;;;18.50;99.90;;;;;;5075299;28;20426;-63
2023/04/17 09:17:57;;;;;;;;;;;18.40;99.90;;;;;;5076497;28;19944;-63
2023/04/17 09:20:24;;;;;;;;;;;18.40;99.80;;;;;;5075234;28;20292;-64
2023/04/17 09:23:01;;;;;;;;;;;18.50;99.50;;;;;;5058000;28;19965;-65
2023/04/17 09:25:28;;;;;;;;;;;18.50;99.60;;;;;;5075069;28;19952;-66
2023/04/17 09:28:08;;;;;;;;;;;18.50;99.90;;;;;;5076999;28;20614;-67
2023/04/17 09:30:40;;;;;;;;;;;18.50;99.90;;;;;;5074780;28;20591;-66
2023/04/17 09:33:08;;;;;;;;;;;18.40;99.90;;;;;;5076188;28;20106;-69
2023/04/17 09:35:37;;;;;;;;;;;18.50;99.90;;;;;;5075362;28;19908;-67
2023/04/17 09:38:04;;;;;;;;;;;18.40;99.90;;;;;;5076238;28;20179;-66
2023/04/17 09:40:40;;;;;;;;;;;18.40;99.90;;;;;;5074997;28;19915;-65
2023/04/17 09:43:08;;;;;;;;;;;18.30;99.90;;;;;;5075988;28;20148;-65
2023/04/17 09:45:38;;;;;;;;;;;18.40;99.90;;;;;;5075060;28;20186;-68
2023/04/17 09:48:06;;;;;;;;;;;18.30;99.90;;;;;;5076188;28;20288;-63
2023/04/17 09:50:33;;;;;;;;;;;18.20;99.90;;;;;;5075050;28;19912;-61
2023/04/17 09:53:00;;;;;;;;;;;18.20;99.90;;;;;;5076347;28;19909;-63
2023/04/17 09:55:36;;;;;;;;;;;18.20;99.90;;;;;;5074847;28;19914;-67
2023/04/17 09:58:04;;;;;;;;;;;18.30;99.90;;;;;;5076856;28;19916;-67
2023/04/17 10:00:30;;;;;;;;;;;18.10;99.90;;;;;;5075074;28;19905;-65
2023/04/17 10:02:58;;;;;;;;;;;18.10;99.90;;;;;;5075940;28;19962;-65
2023/04/17 10:05:26;;;;;;;;;;;18.10;99.90;;;;;;5075359;28;20268;-64
2023/04/17 10:07:53;;;;;;;;;;;18.10;99.90;;;;;;5076814;28;20319;-64
2023/04/17 10:10:29;;;;;;;;;;;18.00;99.90;;;;;;5076579;28;19915;-62
2023/04/17 10:12:56;;;;;;;;;;;18.00;99.90;;;;;;5076709;28;19954;-62
2023/04/17 10:15:24;;;;;;;;;;;18.00;99.90;;;;;;5076975;28;19912;-60
2023/04/17 10:17:51;;;;;;;;;;;18.00;99.90;;;;;;5078569;28;19908;-65
2023/04/17 10:20:21;;;;;;;;;;;18.00;99.90;;;;;;5080173;28;19954;-68
2023/04/17 10:22:53;;;;;;;;;;;18.00;99.90;;;;;;5079211;28;19920;-68
2023/04/17 10:25:21;;;;;;;;;;;18.10;99.90;;;;;;5079789;28;20060;-60
2023/04/17 10:27:49;;;;;;;;;;;18.10;99.90;;;;;;5078885;28;20091;-68
2023/04/17 10:30:16;;;;;;;;;;;18.10;99.90;;;;;;5079090;28;19936;-67
2023/04/17 10:32:46;;;;;;;;;;;18.20;99.90;;;;;;5078222;28;20170;-62
2023/04/17 10:35:15;;;;;;;;;;;18.20;99.90;;;;;;5079449;28;19931;-69
2023/04/17 10:37:50;;;;;;;;;;;18.20;99.90;;;;;;5078314;28;19983;-68
2023/04/17 10:40:24;;;;;;;;;;;18.30;99.90;;;;;;5078908;28;19962;-61
2023/04/17 10:43:10;;;;;;;;;;;18.30;99.90;;;;;;5079078;28;19917;-66
2023/04/17 10:45:58;;;;;;;;;;;18.30;99.90;;;;;;5077732;28;20004;-68
2023/04/17 10:48:41;;;;;;;;;;;18.30;99.90;;;;;;5080144;28;20330;-64
2023/04/17 10:51:23;;;;;;;;;;;18.30;99.90;;;;;;5079231;28;19965;-62
2023/04/17 10:53:50;;;;;;;;;;;18.30;99.90;;;;;;5077772;28;20200;-70
2023/04/17 10:56:17;;;;;;;;;;;18.30;99.90;;;;;;5078835;28;19931;-63
2023/04/17 10:59:01;;;;;;;;;;;18.40;99.90;;;;;;5059866;28;19911;-67
2023/04/17 11:01:45;;;;;;;;;;;18.40;99.90;;;;;;5079759;28;19908;-65
2023/04/17 11:04:18;;;;;;;;;;;18.40;99.90;;;;;;5079095;28;19926;-67
2023/04/17 11:06:46;;;;;;;;;;;18.40;99.90;;;;;;5077751;28;20003;-70
2023/04/17 11:09:12;;;;;;;;;;;18.40;99.90;;;;;;5078977;28;19908;-70
2023/04/17 11:11:40;;;;;;;;;;;18.40;99.90;;;;;;5077263;28;20083;-63
2023/04/17 11:14:09;;;;;;;;;;;18.40;99.90;;;;;;5078458;28;20013;-63
2023/04/17 11:16:40;;;;;;;;;;;18.40;99.90;;;;;;5078337;28;20361;-66
2023/04/17 11:19:32;;;;;;;;;;;18.30;99.90;;;;;;5078542;28;20558;-63
2023/04/17 11:22:01;;;;;;;;;;;18.30;99.90;;;;;;5077685;28;20056;-62
2023/04/17 11:24:31;;;;;;;;;;;18.30;99.90;;;;;;5079099;28;20307;-66
2023/04/17 11:26:59;;;;;;;;;;;18.30;99.90;;;;;;5078240;28;19908;-64
2023/04/17 11:29:30;;;;;;;;;;;18.30;99.90;;;;;;5077670;28;20137;-66
2023/04/17 11:31:59;;;;;;;;;;;18.30;99.90;;;;;;5076891;28;19908;-68
2023/04/17 11:34:26;;;;;;;;;;;18.20;99.90;;;;;;5077938;28;19912;-70
2023/04/17 11:36:55;;;;;;;;;;;18.20;99.90;;;;;;5076853;28;20328;-68
2023/04/17 11:39:23;;;;;;;;;;;18.20;99.90;;;;;;5078029;28;19912;-68
2023/04/17 11:41:50;;;;;;;;;;;18.20;99.90;;;;;;5077228;28;19908;-68
2023/04/17 11:44:19;;;;;;;;;;;18.10;99.90;;;;;;5078433;28;20291;-70
2023/04/17 11:46:50;;;;;;;;;;;18.10;99.90;;;;;;5076597;28;19908;-69
2023/04/17 11:49:23;;;;;;;;;;;18.10;99.90;;;;;;5077885;28;19915;-67
2023/04/17 11:51:50;;;;;;;;;;;18.10;99.90;;;;;;5077056;28;19909;-65
2023/04/17 11:54:36;;;;;;;;;;;18.00;99.90;;;;;;5078088;28;20364;-68
2023/04/17 11:57:04;;;;;;;;;;;18.00;99.90;;;;;;5077941;28;19909;-69
2023/04/17 11:59:31;;;;;;;;;;;18.00;99.90;;;;;;5077982;28;19962;-68
2023/04/17 12:02:00;;;;;;;;;;;17.90;99.90;;;;;;5076293;28;19912;-64
2023/04/17 12:04:33;;;;;;;;;;;17.90;99.90;;;;;;5077693;28;20260;-68
2023/04/17 12:07:01;;;;;;;;;;;17.90;99.90;;;;;;5059041;28;19919;-67
2023/04/17 12:09:30;;;;;;;;;;;17.80;99.90;;;;;;5077325;28;20064;-69
2023/04/17 12:11:58;;;;;;;;;;;17.80;99.90;;;;;;5076492;28;19908;-69
2023/04/17 12:14:24;;;;;;;;;;;17.70;99.90;;;;;;5077461;28;19908;-68
2023/04/17 12:16:51;;;;;;;;;;;17.70;99.90;;;;;;5076576;28;19908;-70
2023/04/17 12:19:20;;;;;;;;;;;17.70;99.90;;;;;;5077409;28;20314;-63
2023/04/17 12:21:47;;;;;;;;;;;17.50;99.90;;;;;;5076407;28;19908;-64
2023/04/17 12:24:16;;;;;;;;;;;17.50;99.90;;;;;;5078729;28;19920;-66
2023/04/17 12:26:47;;;;;;;;;;;17.40;99.90;;;;;;5077376;28;20008;-65
2023/04/17 12:29:14;;;;;;;;;;;17.40;99.90;;;;;;5077425;28;19919;-67
2023/04/17 12:31:40;;;;;;;;;;;17.30;99.90;;;;;;5078139;28;19915;-70
2023/04/17 12:34:07;;;;;;;;;;;17.30;99.90;;;;;;5076424;28;20166;-69
2023/04/17 12:36:34;;;;;;;;;;;17.20;99.90;;;;;;5077077;28;20042;-64
2023/04/17 12:39:01;;;;;;;;;;;17.10;99.90;;;;;;5076481;28;20372;-65
2023/04/17 12:41:28;;;;;;;;;;;17.10;99.90;;;;;;5077045;28;19997;-67
2023/04/17 12:43:58;;;;;;;;;;;17.00;99.90;;;;;;5075907;28;19916;-64
2023/04/17 12:46:25;;;;;;;;;;;17.00;99.90;;;;;;5076737;28;19908;-66
2023/04/17 12:48:57;;;;;;;;;;;16.90;99.90;;;;;;5076025;28;19915;-63
2023/04/17 12:51:31;;;;;;;;;;;16.90;99.90;;;;;;5076557;28;19914;-67
2023/04/17 12:53:57;;;;;;;;;;;16.90;99.90;;;;;;5075744;28;19953;-68
2023/04/17 12:56:24;;;;;;;;;;;16.80;99.90;;;;;;5076772;28;19909;-63
2023/04/17 12:58:51;;;;;;;;;;;16.70;99.90;;;;;;5076513;28;19908;-64
2023/04/17 13:01:17;;;;;;;;;;;16.70;99.90;;;;;;5077004;28;20334;-65
2023/04/17 13:03:44;;;;;;;;;;;16.70;99.90;;;;;;5077137;28;20006;-68
2023/04/17 13:06:11;;;;;;;;;;;16.60;99.90;;;;;;5075287;28;20175;-68
2023/04/17 13:08:37;;;;;;;;;;;16.60;99.90;;;;;;5076597;28;20109;-67
2023/04/17 13:11:04;;;;;;;;;;;16.50;99.90;;;;;;5075684;28;19915;-67
2023/04/17 13:13:31;;;;;;;;;;;16.50;99.90;;;;;;5076911;28;19915;-69
2023/04/17 13:15:58;;;;;;;;;;;16.40;99.90;;;;;;5075054;28;20038;-64
2023/04/17 13:18:25;;;;;;;;;;;16.40;99.90;;;;;;5077318;28;20321;-67
2023/04/17 13:20:51;;;;;;;;;;;16.30;99.90;;;;;;5077114;28;19923;-62
2023/04/17 13:23:18;;;;;;;;;;;16.30;99.90;;;;;;5076167;28;19927;-65
2023/04/17 13:25:45;;;;;;;;;;;16.20;99.90;;;;;;5076548;28;20369;-68
2023/04/17 13:28:14;;;;;;;;;;;16.20;99.90;;;;;;5075329;28;20266;-63
2023/04/17 13:30:40;;;;;;;;;;;16.20;99.90;;;;;;5076499;28;20511;-68
2023/04/17 13:33:07;;;;;;;;;;;16.20;99.90;;;;;;5075636;28;19961;-66
2023/04/17 13:35:34;;;;;;;;;;;16.20;99.90;;;;;;5076419;28;19954;-66
2023/04/17 13:38:01;;;;;;;;;;;16.10;99.90;;;;;;5075114;28;20025;-64
2023/04/17 13:40:29;;;;;;;;;;;16.10;99.90;;;;;;5076773;28;19919;-61
2023/04/17 13:42:55;;;;;;;;;;;16.10;99.90;;;;;;5076379;28;19999;-63
2023/04/17 13:45:22;;;;;;;;;;;16.00;99.90;;;;;;5076909;28;19908;-69
2023/04/17 13:47:49;;;;;;;;;;;16.00;99.90;;;;;;5076503;28;19919;-62
2023/04/17 13:50:15;;;;;;;;;;;16.00;99.90;;;;;;5074890;28;20739;-68
2023/04/17 13:52:42;;;;;;;;;;;16.00;99.90;;;;;;5078504;28;19999;-64
2023/04/17 13:55:13;;;;;;;;;;;15.90;99.90;;;;;;5079103;28;19965;-66
2023/04/17 13:57:39;;;;;;;;;;;15.90;99.90;;;;;;5080101;28;19912;-67
2023/04/17 14:00:06;;;;;;;;;;;15.90;99.90;;;;;;5078724;28;20011;-67
2023/04/17 14:02:33;;;;;;;;;;;15.80;99.90;;;;;;5080272;28;20432;-69
2023/04/17 14:05:00;;;;;;;;;;;15.90;99.90;;;;;;5080676;28;19915;-65
2023/04/17 14:07:26;;;;;;;;;;;15.80;99.90;;;;;;5080560;28;19908;-66
2023/04/17 14:09:53;;;;;;;;;;;15.80;99.90;;;;;;5080132;28;20068;-71
2023/04/17 14:12:20;;;;;;;;;;;15.80;99.90;;;;;;5079323;28;20193;-68
2023/04/17 14:14:47;;;;;;;;;;;15.80;99.90;;;;;;5079833;28;19912;-61
2023/04/17 14:17:13;;;;;;;;;;;15.80;99.90;;;;;;5078830;28;19912;-65
2023/04/17 14:19:40;;;;;;;;;;;15.80;99.90;;;;;;5079550;28;20414;-68